Wichita, KS (67212)

11:34 PM CST on February 09, 2016 (GMT -0600)
W Westlawn Circle | | Change Station
CLOSE
Current Station
Personal Weather Station
Location: Wichita, KS
Elevation: 1345 ft
Nearby Weather Stations

Elev 1345 ft 37.72 °N, 97.47 °W | Updated 5 seconds ago

Clear
Clear
28.1 °F
Feels Like 28 °F
N
0.0
Wind Variable Wind from East
Gusts 1.0 mph

Today
High -- | Low -- °F
--% Chance of Precip.
Yesterday
High -- | Low -- °F
Precip. -- in
Pressure 30.32 in
Visibility 10.0 miles
Clouds Few 6000 ft
Windchill 28 °F
Dew Point 16 °F
Humidity 60%
Rainfall 0.00 in
Snow Depth Not available.
7:26 AM 6:01 PM
Waxing Crescent, 4% visible
METAR KICT 100453Z 04005KT 10SM FEW060 M02/M11 A3028 RMK AO2 SLP265 T10221106
Pressure 30.32 in
Visibility 10.0 miles
Clouds Few 6000 ft
Windchill 28 °F
Dew Point 16 °F
Humidity 60%
Rainfall 0.00 in
Snow Depth Not available.
7:26 AM 6:01 PM
Waxing Crescent, 4% visible
METAR KICT 100453Z 04005KT 10SM FEW060 M02/M11 A3028 RMK AO2 SLP265 T10221106

10-Day Weather Forecast

Almanac

Astronomy

Feb. 09, 2016 Rise Set
Actual Time
Civil Twilight
Nautical Twilight
Astronomical Twilight
Moon
Length of Visible Light
Length of Day
Tomorrow will be .
, % of the Moon is Illuminated

Today's Extremes

State Highs State Lows

Community

WunderPhotos

Upload Photos

1,891,823 photos uploaded!

WunderBlog® & News

Nearby

Air Quality

  Air Quality AQ Index Pollutant
Not available.

Snow Depth

Station Depth Elevation

Earthquake Activity

City Distance Mag. Time & Date
Minimum magnitude displayed is 2.5.

Coastal Water Temperatures

Place Temperature

Stations

Nearby Weather Stations

Station Location Temp. Windchill Dew Point Humidity Wind Precip. Elev Updated Type
                   

Watches & Warnings

There are currently no watches in effect.